createdAt,value
2023-03-17T11:34:35.972Z,14.80
2023-03-17T11:37:04.100Z,15.40
2023-03-17T11:40:13.342Z,16.70
2023-03-17T11:43:20.347Z,16.60
2023-03-17T11:46:14.314Z,16.20
2023-03-17T11:49:02.951Z,16.90
2023-03-17T11:51:54.810Z,16.40
2023-03-17T11:54:28.065Z,15.40
2023-03-17T11:57:02.365Z,15.40
2023-03-17T11:59:52.349Z,17.00
2023-03-17T12:02:29.007Z,16.60
2023-03-17T12:05:06.957Z,15.80
2023-03-17T12:07:53.387Z,15.90
2023-03-17T12:10:28.813Z,15.40
2023-03-17T12:13:17.058Z,17.30
2023-03-17T12:15:53.247Z,17.30
2023-03-17T12:18:43.733Z,17.20
2023-03-17T12:21:50.368Z,16.90
2023-03-17T12:24:24.069Z,17.20
2023-03-17T12:27:01.049Z,17.30
2023-03-17T12:29:43.393Z,16.80
2023-03-17T12:32:44.577Z,17.30
2023-03-17T12:35:33.408Z,18.40
2023-03-17T12:38:08.218Z,17.80
2023-03-17T12:41:07.990Z,17.90
2023-03-17T12:44:00.353Z,18.30
2023-03-17T12:46:43.618Z,18.60
2023-03-17T12:49:29.813Z,18.00
2023-03-17T12:52:07.677Z,18.40
2023-03-17T12:54:37.614Z,18.90
2023-03-17T12:57:20.363Z,18.80
2023-03-17T12:59:56.634Z,19.90
2023-03-17T13:02:29.874Z,18.40
2023-03-17T13:05:03.251Z,18.40
2023-03-17T13:07:38.165Z,17.00
2023-03-17T13:10:21.545Z,16.60
2023-03-17T13:12:48.905Z,16.50
2023-03-17T13:15:48.438Z,17.10
2023-03-17T13:18:15.865Z,16.90
2023-03-17T13:20:44.866Z,17.90
2023-03-17T13:23:18.017Z,17.30
2023-03-17T13:25:53.906Z,17.20
2023-03-17T13:28:43.014Z,16.60
2023-03-17T13:31:31.981Z,16.70
2023-03-17T13:34:18.032Z,17.10
2023-03-17T13:37:01.506Z,17.00
2023-03-17T13:39:49.012Z,17.40
2023-03-17T13:42:23.394Z,17.10
2023-03-17T13:45:08.245Z,16.50
2023-03-17T13:47:42.345Z,16.60
2023-03-17T13:50:30.983Z,17.20
2023-03-17T13:53:02.768Z,17.80
2023-03-17T13:55:36.422Z,17.40
2023-03-17T13:58:11.895Z,17.00
2023-03-17T14:00:41.780Z,17.20
2023-03-17T14:03:35.457Z,16.80
2023-03-17T14:06:06.762Z,16.40
2023-03-17T14:08:35.891Z,16.50
2023-03-17T14:11:22.833Z,15.80
2023-03-17T14:14:04.650Z,14.30
2023-03-17T14:16:57.671Z,13.90
2023-03-17T14:19:28.341Z,13.00
2023-03-17T14:22:02.170Z,13.10
2023-03-17T14:24:32.893Z,14.00
2023-03-17T14:27:08.582Z,13.50
2023-03-17T14:29:37.329Z,13.10
2023-03-17T14:32:16.862Z,12.90
2023-03-17T14:34:54.596Z,12.80
2023-03-17T14:37:23.148Z,12.80
2023-03-17T14:39:57.777Z,12.90
2023-03-17T14:42:30.656Z,12.60
2023-03-17T14:45:04.872Z,12.40
2023-03-17T14:47:42.076Z,12.70
2023-03-17T14:50:18.663Z,12.50
2023-03-17T14:52:46.099Z,12.30
2023-03-17T14:55:16.077Z,12.30
2023-03-17T14:57:49.380Z,12.20
2023-03-17T15:00:32.218Z,12.00
2023-03-17T15:03:03.441Z,11.90
2023-03-17T15:05:41.183Z,12.10
2023-03-17T15:08:41.511Z,12.00
2023-03-17T15:11:16.464Z,11.90
2023-03-17T15:13:44.516Z,11.90
2023-03-17T15:16:21.276Z,11.80
2023-03-17T15:18:53.199Z,11.70
2023-03-17T15:21:33.618Z,11.60
2023-03-17T15:24:06.589Z,11.60
2023-03-17T15:26:37.196Z,11.40
2023-03-17T15:29:05.285Z,11.50
2023-03-17T15:31:32.583Z,11.40
2023-03-17T15:33:59.916Z,11.40
2023-03-17T15:36:32.602Z,11.40
2023-03-17T15:39:02.378Z,11.30
2023-03-17T15:41:29.672Z,11.30
2023-03-17T15:43:57.351Z,11.30
2023-03-17T15:46:31.753Z,11.20
2023-03-17T15:48:59.490Z,11.20
2023-03-17T15:51:27.148Z,11.20
2023-03-17T15:53:54.520Z,11.00
2023-03-17T15:56:22.257Z,11.00
2023-03-17T15:58:52.516Z,10.90
2023-03-17T16:01:20.958Z,10.80
2023-03-17T16:03:49.027Z,10.70
2023-03-17T16:06:22.634Z,10.70
2023-03-17T16:08:51.080Z,10.60
2023-03-17T16:11:28.593Z,10.60
2023-03-17T16:13:58.284Z,10.50
2023-03-17T16:16:41.590Z,10.30
2023-03-17T16:19:18.948Z,10.40
2023-03-17T16:21:47.286Z,10.50
2023-03-17T16:24:20.022Z,10.30
2023-03-17T16:26:47.742Z,10.10
2023-03-17T16:29:16.436Z,10.00
2023-03-17T16:31:49.007Z,10.10
2023-03-17T16:34:18.960Z,10.00
2023-03-17T16:36:46.581Z,9.90
2023-03-17T16:39:25.319Z,9.90
2023-03-17T16:41:54.284Z,9.80
2023-03-17T16:44:23.873Z,9.70
2023-03-17T16:46:51.618Z,9.60
2023-03-17T16:49:20.879Z,9.40
2023-03-17T16:51:49.544Z,9.40
2023-03-17T16:54:17.774Z,9.30
2023-03-17T16:56:45.692Z,9.20
2023-03-17T16:59:24.566Z,9.10
2023-03-17T17:01:55.172Z,9.10
2023-03-17T17:04:23.923Z,9.10
2023-03-17T17:06:51.239Z,9.10
2023-03-17T17:09:19.495Z,9.00
2023-03-17T17:11:47.015Z,8.90
2023-03-17T17:14:14.277Z,8.80
2023-03-17T17:16:41.902Z,8.80
2023-03-17T17:19:17.320Z,8.80
2023-03-17T17:21:46.171Z,8.60
2023-03-17T17:24:15.985Z,8.70
2023-03-17T17:26:43.376Z,8.70
2023-03-17T17:29:10.547Z,8.60
2023-03-17T17:31:38.076Z,8.50
2023-03-17T17:34:05.468Z,8.50
2023-03-17T17:36:33.144Z,8.50
2023-03-17T17:39:00.717Z,8.40
2023-03-17T17:41:28.074Z,8.30
2023-03-17T17:43:56.236Z,8.40
2023-03-17T17:46:24.016Z,8.30
2023-03-17T17:48:51.826Z,8.30
2023-03-17T17:51:19.099Z,8.10
2023-03-17T17:53:46.180Z,8.10
2023-03-17T17:56:17.911Z,8.00
2023-03-17T17:58:46.638Z,8.10
2023-03-17T18:01:17.033Z,8.00
2023-03-17T18:03:44.581Z,8.10
2023-03-17T18:06:13.343Z,7.90
2023-03-17T18:08:41.591Z,7.90
2023-03-17T18:11:08.953Z,7.90
2023-03-17T18:13:39.198Z,7.80
2023-03-17T18:16:10.246Z,7.70
2023-03-17T18:18:40.731Z,7.70
2023-03-17T18:21:08.330Z,7.70
2023-03-17T18:23:36.735Z,7.70
2023-03-17T18:26:06.324Z,7.70
2023-03-17T18:28:34.487Z,7.60
2023-03-17T18:31:10.688Z,7.50
2023-03-17T18:33:40.466Z,7.60
2023-03-17T18:36:09.082Z,7.60
2023-03-17T18:38:37.535Z,7.50
2023-03-17T18:41:08.380Z,7.30
2023-03-17T18:43:35.782Z,7.40
2023-03-17T18:46:03.083Z,7.40
2023-03-17T18:48:31.116Z,7.40
2023-03-17T18:50:58.301Z,7.30
2023-03-17T18:53:25.574Z,7.30
2023-03-17T18:55:52.851Z,7.30
2023-03-17T18:58:20.294Z,7.30
2023-03-17T19:00:49.413Z,7.20
2023-03-17T19:03:17.649Z,7.20
2023-03-17T19:05:44.835Z,7.20
2023-03-17T19:08:14.326Z,7.10
2023-03-17T19:10:44.380Z,7.10
2023-03-17T19:13:11.863Z,7.10
2023-03-17T19:15:39.299Z,7.10
2023-03-17T19:18:07.057Z,7.10
2023-03-17T19:20:36.418Z,7.00
2023-03-17T19:23:04.971Z,6.90
2023-03-17T19:25:32.135Z,6.80
2023-03-17T19:27:59.432Z,6.90
2023-03-17T19:30:27.453Z,7.00
2023-03-17T19:32:54.665Z,6.90
2023-03-17T19:35:22.407Z,6.90
2023-03-17T19:37:49.614Z,6.70
2023-03-17T19:40:17.287Z,6.70
2023-03-17T19:42:44.453Z,6.70
2023-03-17T19:45:12.103Z,6.80
2023-03-17T19:47:39.502Z,6.80
2023-03-17T19:50:07.516Z,6.70
2023-03-17T19:52:35.793Z,6.70
2023-03-17T19:55:04.866Z,6.70
2023-03-17T19:57:33.747Z,6.70
2023-03-17T20:00:00.989Z,6.70
2023-03-17T20:02:28.446Z,6.60
2023-03-17T20:04:55.763Z,6.60
2023-03-17T20:07:23.053Z,6.60
2023-03-17T20:09:50.440Z,6.50
2023-03-17T20:12:17.673Z,6.50
2023-03-17T20:14:45.142Z,6.40
2023-03-17T20:17:13.962Z,6.50
2023-03-17T20:19:41.108Z,6.50
2023-03-17T20:22:08.912Z,6.50
2023-03-17T20:24:36.790Z,6.50
2023-03-17T20:27:05.663Z,6.40
2023-03-17T20:29:33.621Z,6.40
2023-03-17T20:32:02.652Z,6.30
2023-03-17T20:34:29.881Z,6.30
2023-03-17T20:36:57.774Z,6.20
2023-03-17T20:39:25.520Z,6.20
2023-03-17T20:41:52.727Z,6.20
2023-03-17T20:44:21.350Z,6.10
2023-03-17T20:46:48.754Z,6.10
2023-03-17T20:49:17.460Z,6.10
2023-03-17T20:51:44.625Z,6.00
2023-03-17T20:54:13.015Z,6.00
2023-03-17T20:56:40.729Z,6.00
2023-03-17T20:59:10.039Z,6.00
2023-03-17T21:01:38.863Z,6.00
2023-03-17T21:04:09.360Z,5.90
2023-03-17T21:06:38.661Z,6.00
2023-03-17T21:09:06.064Z,6.00
2023-03-17T21:11:33.764Z,6.00
2023-03-17T21:14:03.483Z,6.10
2023-03-17T21:16:31.320Z,5.90
2023-03-17T21:19:00.345Z,5.90
2023-03-17T21:21:28.675Z,5.90
2023-03-17T21:23:56.375Z,5.80
2023-03-17T21:26:24.834Z,6.00
2023-03-17T21:28:52.838Z,5.90
2023-03-17T21:31:20.262Z,5.80
2023-03-17T21:33:50.889Z,5.90
2023-03-17T21:36:18.796Z,5.90
2023-03-17T21:38:45.884Z,5.90
2023-03-17T21:41:32.473Z,5.90
2023-03-17T21:44:01.546Z,5.80
2023-03-17T21:46:29.692Z,5.80
2023-03-17T21:48:57.190Z,5.80
2023-03-17T21:51:25.644Z,5.80
2023-03-17T21:53:53.959Z,5.80
2023-03-17T21:56:21.456Z,5.70
2023-03-17T21:58:49.443Z,5.80
2023-03-17T22:01:18.705Z,5.70
2023-03-17T22:03:46.090Z,5.70
2023-03-17T22:06:16.480Z,5.70
2023-03-17T22:08:44.621Z,5.70
2023-03-17T22:11:15.613Z,5.70
2023-03-17T22:13:43.699Z,5.60
2023-03-17T22:16:12.630Z,5.60
2023-03-17T22:18:39.892Z,5.60
2023-03-17T22:21:08.569Z,5.60
2023-03-17T22:23:41.435Z,5.60
2023-03-17T22:26:14.521Z,5.60
2023-03-17T22:28:43.769Z,5.50
2023-03-17T22:31:17.130Z,5.50
2023-03-17T22:33:45.363Z,5.50
2023-03-17T22:36:13.108Z,5.40
2023-03-17T22:38:40.643Z,5.50
2023-03-17T22:41:14.893Z,5.40
2023-03-17T22:43:42.622Z,5.50
2023-03-17T22:46:11.479Z,5.40
2023-03-17T22:48:40.384Z,5.40
2023-03-17T22:51:14.130Z,5.40
2023-03-17T22:53:41.372Z,5.40
2023-03-17T22:56:11.047Z,5.40
2023-03-17T22:58:39.060Z,5.30
2023-03-17T23:01:07.923Z,5.20
2023-03-17T23:03:35.744Z,5.20
2023-03-17T23:06:05.058Z,5.20
2023-03-17T23:08:35.488Z,5.20
2023-03-17T23:11:07.268Z,5.20
2023-03-17T23:13:35.758Z,5.10
2023-03-17T23:16:05.019Z,5.10
2023-03-17T23:18:32.480Z,5.00
2023-03-17T23:21:00.959Z,5.10
2023-03-17T23:23:29.023Z,5.00
2023-03-17T23:25:56.390Z,5.00
2023-03-17T23:28:24.570Z,5.00
2023-03-17T23:30:53.042Z,5.00
2023-03-17T23:33:21.872Z,5.00
2023-03-17T23:35:51.573Z,4.90
2023-03-17T23:38:21.697Z,4.90
2023-03-17T23:40:50.320Z,5.00
2023-03-17T23:43:17.906Z,5.00
2023-03-17T23:45:45.906Z,5.00
2023-03-17T23:48:13.256Z,4.90
2023-03-17T23:50:42.513Z,4.90
2023-03-17T23:53:11.643Z,4.90
2023-03-17T23:55:40.404Z,5.00
2023-03-17T23:58:07.986Z,5.10
